createdAt,value
2023-01-29T00:02:14.777Z,26.20
2023-01-29T00:04:46.443Z,21.55
2023-01-29T00:07:15.104Z,20.50
2023-01-29T00:09:44.665Z,23.60
2023-01-29T00:12:13.947Z,22.85
2023-01-29T00:14:42.422Z,17.67
2023-01-29T00:17:10.428Z,17.23
2023-01-29T00:19:37.036Z,25.98
2023-01-29T00:22:03.809Z,26.38
2023-01-29T00:24:30.387Z,26.67
2023-01-29T00:26:57.083Z,18.67
2023-01-29T00:29:23.641Z,15.93
2023-01-29T00:31:50.440Z,19.33
2023-01-29T00:34:17.268Z,20.13
2023-01-29T00:36:45.638Z,15.73
2023-01-29T00:39:12.428Z,18.48
2023-01-29T00:41:59.080Z,13.55
2023-01-29T00:44:45.635Z,11.75
2023-01-29T00:47:32.181Z,14.00
2023-01-29T00:50:00.664Z,11.05
2023-01-29T00:52:28.873Z,14.05
2023-01-29T00:54:58.535Z,13.02
2023-01-29T00:57:27.525Z,10.88
2023-01-29T00:59:54.582Z,11.13
2023-01-29T01:02:41.858Z,12.05
2023-01-29T01:05:14.338Z,15.13
2023-01-29T01:07:41.444Z,14.13
2023-01-29T01:10:28.458Z,11.52
2023-01-29T01:12:58.487Z,8.82
2023-01-29T01:15:28.921Z,9.45
2023-01-29T01:17:58.000Z,12.27
2023-01-29T01:20:27.594Z,11.30
2023-01-29T01:22:56.923Z,9.32
2023-01-29T01:25:27.001Z,9.18
2023-01-29T01:27:57.729Z,10.90
2023-01-29T01:30:27.183Z,11.98
2023-01-29T01:32:55.685Z,9.82
2023-01-29T01:35:24.493Z,9.48
2023-01-29T01:37:52.665Z,10.80
2023-01-29T01:40:24.555Z,10.65
2023-01-29T01:42:55.900Z,11.65
2023-01-29T01:45:35.702Z,8.20
2023-01-29T01:53:27.020Z,10.13
2023-01-29T01:56:00.432Z,10.95
2023-01-29T01:58:33.502Z,10.23
2023-01-29T02:01:01.487Z,8.55
2023-01-29T02:03:51.438Z,8.27
2023-01-29T02:09:31.654Z,7.30
2023-01-29T02:11:58.396Z,7.53
2023-01-29T02:14:25.515Z,9.20
2023-01-29T02:16:52.304Z,7.35
2023-01-29T02:19:35.705Z,7.53
2023-01-29T02:25:09.898Z,7.63
2023-01-29T02:30:41.207Z,9.63
2023-01-29T02:38:45.903Z,9.85
2023-01-29T02:43:59.727Z,7.53
2023-01-29T02:49:25.154Z,7.47
2023-01-29T02:52:02.844Z,6.80
2023-01-29T02:54:43.850Z,9.45
2023-01-29T02:57:20.832Z,6.60
2023-01-29T03:02:43.333Z,8.60
2023-01-29T03:05:17.648Z,9.50
2023-01-29T03:07:52.397Z,7.28
2023-01-29T03:10:25.311Z,7.22
2023-01-29T03:12:57.792Z,5.22
2023-01-29T03:15:31.263Z,5.75
2023-01-29T03:18:06.129Z,7.10
2023-01-29T03:20:38.847Z,10.18
2023-01-29T03:23:13.644Z,9.38
2023-01-29T03:26:02.392Z,9.65
2023-01-29T03:28:50.412Z,9.05
2023-01-29T03:31:38.532Z,9.60
2023-01-29T03:34:16.667Z,9.30
2023-01-29T03:36:50.677Z,11.85
2023-01-29T03:39:17.648Z,9.10
2023-01-29T03:41:51.856Z,8.07
2023-01-29T03:47:05.028Z,11.45
2023-01-29T03:52:18.053Z,14.95
2023-01-29T03:55:10.858Z,11.38
2023-01-29T03:57:45.655Z,11.23
2023-01-29T04:00:25.995Z,11.18
2023-01-29T04:03:07.981Z,13.38
2023-01-29T04:05:58.725Z,9.43
2023-01-29T04:08:30.421Z,11.82
2023-01-29T04:11:02.931Z,12.80
2023-01-29T04:13:33.834Z,12.93
2023-01-29T04:16:04.381Z,13.50
2023-01-29T04:18:31.547Z,13.25
2023-01-29T04:21:00.528Z,13.32
2023-01-29T04:23:27.893Z,11.90
2023-01-29T04:26:29.111Z,11.35
2023-01-29T04:32:20.076Z,10.27
2023-01-29T04:35:21.894Z,9.57
2023-01-29T04:40:39.592Z,10.27
2023-01-29T04:43:15.307Z,7.88
2023-01-29T04:54:23.639Z,11.50
2023-01-29T04:59:33.861Z,10.15
2023-01-29T05:02:02.592Z,10.20
2023-01-29T05:04:33.274Z,9.63
2023-01-29T05:07:05.139Z,12.68
2023-01-29T05:09:33.312Z,10.98
2023-01-29T05:12:01.131Z,10.15
2023-01-29T05:14:31.133Z,9.10
2023-01-29T05:17:01.728Z,12.60
2023-01-29T05:19:28.370Z,13.43
2023-01-29T05:21:55.574Z,15.40
2023-01-29T05:24:24.714Z,10.95
2023-01-29T05:27:13.512Z,12.65
2023-01-29T05:29:45.440Z,10.70
2023-01-29T05:32:12.634Z,10.80
2023-01-29T05:34:39.428Z,10.50
2023-01-29T05:37:06.182Z,8.82
2023-01-29T05:39:33.263Z,9.60
2023-01-29T05:42:00.188Z,9.40
2023-01-29T05:44:26.833Z,12.68
2023-01-29T05:46:53.599Z,11.32
2023-01-29T05:49:20.735Z,12.45
2023-01-29T05:51:47.518Z,10.70
2023-01-29T05:54:14.602Z,12.77
2023-01-29T05:56:41.297Z,11.30
2023-01-29T05:59:07.971Z,10.63
2023-01-29T06:01:34.801Z,11.32
2023-01-29T06:04:01.834Z,11.13
2023-01-29T06:06:28.502Z,11.30
2023-01-29T06:08:56.373Z,11.18
2023-01-29T06:11:23.406Z,12.57
2023-01-29T06:13:50.593Z,11.80
2023-01-29T06:16:17.532Z,12.00
2023-01-29T06:18:44.320Z,10.25
2023-01-29T06:21:13.872Z,11.52
2023-01-29T06:23:40.855Z,12.07
2023-01-29T06:26:11.083Z,15.93
2023-01-29T06:28:38.696Z,11.10
2023-01-29T06:31:37.224Z,9.60
2023-01-29T06:33:53.832Z,12.13
2023-01-29T06:36:20.641Z,10.80
2023-01-29T06:38:47.571Z,11.77
2023-01-29T06:41:18.170Z,10.05
2023-01-29T06:43:45.710Z,10.23
2023-01-29T06:46:12.312Z,10.90
2023-01-29T06:48:39.264Z,12.40
2023-01-29T06:51:08.371Z,12.00
2023-01-29T06:53:36.248Z,10.82
2023-01-29T06:56:03.792Z,10.93
2023-01-29T06:58:30.626Z,10.57
2023-01-29T07:01:09.513Z,9.57
2023-01-29T07:03:36.830Z,11.40
2023-01-29T07:06:04.494Z,12.48
2023-01-29T07:08:31.336Z,13.00
2023-01-29T07:11:00.741Z,10.25
2023-01-29T07:13:27.787Z,10.23
2023-01-29T07:15:54.403Z,10.23
2023-01-29T07:18:21.086Z,9.20
2023-01-29T07:20:47.732Z,11.45
2023-01-29T07:23:15.574Z,13.93
2023-01-29T07:25:42.581Z,9.00
2023-01-29T07:28:09.459Z,10.80
2023-01-29T07:30:36.376Z,9.10
2023-01-29T07:33:07.583Z,11.27
2023-01-29T07:35:43.596Z,9.15
2023-01-29T07:38:11.287Z,10.50
2023-01-29T07:40:38.325Z,12.07
2023-01-29T07:43:07.420Z,10.48
2023-01-29T07:45:36.462Z,11.07
2023-01-29T07:48:05.289Z,10.10
2023-01-29T07:50:33.859Z,10.13
2023-01-29T07:53:00.942Z,9.15
2023-01-29T07:55:28.070Z,7.40
2023-01-29T07:57:59.850Z,10.00
2023-01-29T08:00:27.071Z,9.18
2023-01-29T08:02:53.798Z,10.50
2023-01-29T08:05:20.898Z,14.20
2023-01-29T08:08:05.765Z,12.52
2023-01-29T08:10:33.848Z,9.80
2023-01-29T08:13:01.816Z,8.55
2023-01-29T08:15:29.577Z,15.60
2023-01-29T08:20:43.494Z,10.57
2023-01-29T08:23:15.556Z,12.20
2023-01-29T08:25:42.292Z,12.13
2023-01-29T08:28:09.955Z,12.23
2023-01-29T08:30:36.786Z,12.10
2023-01-29T08:33:04.918Z,12.15
2023-01-29T08:35:31.795Z,13.07
2023-01-29T08:38:02.500Z,10.27
2023-01-29T08:40:33.252Z,17.15
2023-01-29T08:43:03.031Z,18.13
2023-01-29T08:45:34.613Z,17.35
2023-01-29T08:48:01.434Z,16.25
2023-01-29T08:50:30.718Z,16.45
2023-01-29T08:52:59.385Z,22.77
2023-01-29T08:55:27.153Z,14.18
2023-01-29T08:57:54.567Z,14.05
2023-01-29T09:00:21.792Z,13.18
2023-01-29T09:02:48.486Z,15.48
2023-01-29T09:05:15.654Z,14.95
2023-01-29T09:07:42.877Z,15.55
2023-01-29T09:10:10.662Z,16.95
2023-01-29T09:12:37.329Z,21.92
2023-01-29T09:15:04.370Z,18.85
2023-01-29T09:17:30.997Z,21.58
2023-01-29T09:19:58.933Z,18.67
2023-01-29T09:22:25.636Z,18.48
2023-01-29T09:24:52.682Z,20.85
2023-01-29T09:27:19.490Z,14.77
2023-01-29T09:29:46.591Z,18.15
2023-01-29T09:32:13.214Z,16.95
2023-01-29T09:34:39.787Z,17.27
2023-01-29T09:37:06.973Z,20.33
2023-01-29T09:39:33.565Z,16.77
2023-01-29T09:47:20.677Z,30.15
2023-01-29T09:49:52.398Z,22.60
2023-01-29T09:52:26.336Z,18.38
2023-01-29T09:57:42.294Z,17.33
2023-01-29T10:14:39.700Z,29.52
2023-01-29T10:20:26.747Z,22.15
2023-01-29T10:25:50.366Z,22.85
2023-01-29T10:28:20.965Z,26.92
2023-01-29T10:30:50.907Z,23.75
2023-01-29T10:33:24.949Z,24.90
2023-01-29T10:35:57.832Z,23.77
2023-01-29T10:47:11.100Z,19.42
2023-01-29T10:52:55.098Z,23.67
2023-01-29T11:00:54.836Z,19.95
2023-01-29T11:03:29.164Z,21.77
2023-01-29T11:08:41.054Z,21.33
2023-01-29T11:11:13.078Z,21.52
2023-01-29T11:13:47.585Z,18.25
2023-01-29T11:16:15.062Z,18.77
2023-01-29T11:18:52.590Z,16.00
2023-01-29T11:21:19.638Z,14.38
2023-01-29T11:23:47.174Z,16.77
2023-01-29T11:26:19.316Z,15.10
2023-01-29T11:28:48.963Z,16.00
2023-01-29T11:34:16.973Z,16.90
2023-01-29T11:36:45.302Z,15.30
2023-01-29T11:42:03.727Z,10.98
2023-01-29T11:49:54.042Z,8.80
2023-01-29T11:52:24.139Z,10.00
2023-01-29T11:54:55.797Z,9.15
2023-01-29T11:57:27.683Z,17.20
2023-01-29T11:59:57.283Z,14.85
2023-01-29T12:02:36.636Z,10.57
2023-01-29T12:05:14.561Z,9.75
2023-01-29T12:07:43.795Z,9.00
2023-01-29T12:15:49.142Z,6.97
2023-01-29T12:21:12.249Z,5.90
2023-01-29T12:24:07.665Z,6.85
2023-01-29T12:26:40.426Z,7.28
2023-01-29T12:29:34.326Z,6.72
2023-01-29T12:32:12.690Z,6.90
2023-01-29T12:37:46.243Z,8.20
2023-01-29T12:40:16.175Z,7.93
2023-01-29T12:42:48.277Z,5.60
2023-01-29T12:45:25.347Z,3.92
2023-01-29T12:47:56.299Z,2.00
2023-01-29T12:50:29.267Z,2.65
2023-01-29T12:55:45.418Z,2.15
2023-01-29T12:58:16.416Z,3.53
2023-01-29T13:00:46.577Z,2.45
2023-01-29T13:08:37.538Z,3.92
2023-01-29T13:11:12.265Z,3.25
2023-01-29T13:13:54.145Z,2.67
2023-01-29T13:16:26.604Z,2.55
2023-01-29T13:18:58.018Z,2.05
2023-01-29T13:21:29.529Z,4.57
2023-01-29T13:24:01.821Z,1.85
2023-01-29T13:26:29.098Z,2.30
2023-01-29T13:28:56.142Z,1.88
2023-01-29T13:31:34.938Z,2.05
2023-01-29T13:34:28.528Z,2.38
2023-01-29T13:36:59.434Z,2.42
2023-01-29T13:39:34.327Z,1.95
2023-01-29T13:42:03.855Z,2.80
2023-01-29T13:44:37.881Z,1.75
2023-01-29T13:47:07.989Z,4.60
2023-01-29T13:49:40.429Z,5.00
2023-01-29T13:55:21.450Z,1.52
2023-01-29T14:11:35.926Z,10.13
2023-01-29T14:14:42.307Z,6.35
2023-01-29T14:17:09.027Z,6.35
2023-01-29T14:19:35.644Z,34.67
2023-01-29T14:22:02.405Z,9.63
2023-01-29T14:24:31.145Z,13.00
2023-01-29T14:26:57.920Z,12.55
2023-01-29T14:29:34.795Z,3.72
2023-01-29T14:32:24.999Z,2.45
2023-01-29T14:37:31.356Z,2.40
2023-01-29T14:40:07.636Z,1.52
2023-01-29T14:42:37.960Z,1.55
2023-01-29T14:53:16.751Z,2.45
2023-01-29T14:55:48.717Z,1.90
2023-01-29T14:58:27.444Z,1.90
2023-01-29T15:00:59.118Z,1.90
2023-01-29T15:03:46.238Z,1.58
2023-01-29T15:06:24.200Z,1.73
2023-01-29T15:09:03.080Z,1.50
2023-01-29T15:11:40.932Z,2.35
2023-01-29T15:14:23.965Z,1.67
2023-01-29T15:19:35.376Z,2.83
2023-01-29T15:22:08.757Z,2.75
2023-01-29T15:24:37.254Z,4.70
2023-01-29T15:27:06.639Z,5.22
2023-01-29T15:29:33.858Z,2.72
2023-01-29T15:32:01.745Z,2.72
2023-01-29T15:34:28.538Z,2.63
2023-01-29T15:36:55.355Z,2.55
2023-01-29T15:39:24.674Z,2.55
2023-01-29T15:42:09.329Z,5.38
2023-01-29T15:44:35.952Z,2.08
2023-01-29T15:47:02.887Z,2.67
2023-01-29T15:49:33.307Z,2.08
2023-01-29T15:52:05.391Z,2.20
2023-01-29T15:54:34.636Z,1.95
2023-01-29T15:57:03.087Z,1.73
2023-01-29T15:59:34.753Z,3.63
2023-01-29T16:02:28.543Z,1.90
2023-01-29T16:04:55.861Z,1.75
2023-01-29T16:07:22.809Z,2.03
2023-01-29T16:09:51.422Z,2.20
2023-01-29T16:12:18.637Z,2.38
2023-01-29T16:14:46.219Z,2.28
2023-01-29T16:20:01.337Z,2.38
2023-01-29T16:22:34.811Z,3.72
2023-01-29T16:25:04.798Z,4.45
2023-01-29T16:27:32.928Z,3.88
2023-01-29T16:30:02.245Z,2.78
2023-01-29T16:32:30.730Z,6.70
2023-01-29T16:35:00.107Z,4.53
2023-01-29T16:40:28.419Z,4.20
2023-01-29T16:46:05.514Z,11.02
2023-01-29T16:48:35.392Z,12.18
2023-01-29T16:51:31.447Z,12.20
2023-01-29T16:54:03.494Z,13.98
2023-01-29T16:56:32.443Z,10.55
2023-01-29T16:59:00.324Z,16.63
2023-01-29T17:01:29.715Z,14.43
2023-01-29T17:04:07.643Z,9.65
2023-01-29T17:06:35.246Z,16.25
2023-01-29T17:09:04.060Z,11.60
2023-01-29T17:11:35.017Z,7.47
2023-01-29T17:14:02.024Z,5.68
2023-01-29T17:16:32.082Z,4.45
2023-01-29T17:19:00.697Z,5.30
2023-01-29T17:21:29.343Z,15.77
2023-01-29T17:23:56.038Z,4.53
2023-01-29T17:26:24.705Z,8.82
2023-01-29T17:28:52.707Z,4.35
2023-01-29T17:31:19.386Z,3.50
2023-01-29T17:33:46.282Z,3.33
2023-01-29T17:36:16.436Z,2.72
2023-01-29T17:38:43.748Z,4.43
2023-01-29T17:43:47.553Z,2.72
2023-01-29T17:46:16.736Z,2.10
2023-01-29T17:48:44.098Z,1.38
2023-01-29T17:51:16.019Z,1.73
2023-01-29T17:53:46.230Z,2.75
2023-01-29T17:56:30.277Z,2.47
2023-01-29T17:58:56.900Z,3.60
2023-01-29T18:01:23.812Z,2.92
2023-01-29T18:03:50.778Z,2.42
2023-01-29T18:06:27.373Z,2.05
2023-01-29T18:08:54.266Z,1.85
2023-01-29T18:11:20.809Z,2.85
2023-01-29T18:13:47.366Z,2.50
2023-01-29T18:16:14.139Z,13.45
2023-01-29T18:18:41.257Z,6.85
2023-01-29T18:21:08.081Z,19.15
2023-01-29T18:23:35.799Z,16.65
2023-01-29T18:26:02.524Z,17.92
2023-01-29T18:28:29.856Z,10.32
2023-01-29T18:30:56.668Z,14.88
2023-01-29T18:33:25.027Z,26.00
2023-01-29T18:35:51.724Z,14.88
2023-01-29T18:38:19.101Z,20.65
2023-01-29T18:40:46.491Z,8.30
2023-01-29T18:43:15.596Z,14.25
2023-01-29T18:45:42.816Z,7.40
2023-01-29T18:48:09.508Z,5.15
2023-01-29T18:50:36.877Z,6.03
2023-01-29T18:53:04.709Z,3.80
2023-01-29T18:55:31.407Z,4.22
2023-01-29T18:58:27.465Z,6.85
2023-01-29T19:00:47.165Z,6.28
2023-01-29T19:03:13.913Z,5.70
2023-01-29T19:05:40.467Z,3.70
2023-01-29T19:08:07.633Z,5.65
2023-01-29T19:10:34.812Z,4.88
2023-01-29T19:13:02.182Z,4.30
2023-01-29T19:15:28.973Z,5.95
2023-01-29T19:17:56.747Z,4.53
2023-01-29T19:20:23.484Z,5.80
2023-01-29T19:22:50.395Z,6.55
2023-01-29T19:25:19.721Z,5.40
2023-01-29T19:27:46.899Z,7.97
2023-01-29T19:30:13.705Z,8.15
2023-01-29T19:32:40.716Z,5.43
2023-01-29T19:35:07.515Z,5.15
2023-01-29T19:37:34.133Z,5.47
2023-01-29T19:40:00.675Z,5.60
2023-01-29T19:42:28.267Z,2.97
2023-01-29T19:44:54.887Z,2.65
2023-01-29T19:47:22.308Z,2.25
2023-01-29T19:49:49.898Z,3.00
2023-01-29T19:52:51.076Z,3.03
2023-01-29T19:55:21.424Z,4.10
2023-01-29T19:57:49.540Z,10.65
2023-01-29T20:00:18.653Z,5.72
2023-01-29T20:02:46.109Z,5.57
2023-01-29T20:05:17.419Z,4.57
2023-01-29T20:07:45.366Z,5.78
2023-01-29T20:10:17.911Z,3.58
2023-01-29T20:12:46.664Z,5.30
2023-01-29T20:15:15.051Z,4.13
2023-01-29T20:17:42.189Z,4.78
2023-01-29T20:20:10.626Z,4.60
2023-01-29T20:22:37.291Z,3.88
2023-01-29T20:25:04.496Z,4.50
2023-01-29T20:27:32.263Z,5.22
2023-01-29T20:29:59.757Z,7.05
2023-01-29T20:32:26.953Z,5.80
2023-01-29T20:34:54.357Z,6.40
2023-01-29T20:37:21.826Z,4.63
2023-01-29T20:39:49.123Z,4.18
2023-01-29T20:42:15.911Z,7.40
2023-01-29T20:44:42.574Z,6.07
2023-01-29T20:47:09.521Z,7.00
2023-01-29T20:49:36.305Z,5.82
2023-01-29T20:52:03.821Z,19.20
2023-01-29T20:54:33.424Z,8.88
2023-01-29T20:57:00.905Z,5.75
2023-01-29T20:59:29.615Z,4.47
2023-01-29T21:01:56.784Z,4.07
2023-01-29T21:04:23.967Z,7.60
2023-01-29T21:06:51.573Z,3.65
2023-01-29T21:09:18.815Z,6.05
2023-01-29T21:11:46.631Z,3.60
2023-01-29T21:14:14.733Z,2.88
2023-01-29T21:16:42.204Z,4.40
2023-01-29T21:19:10.659Z,3.88
2023-01-29T21:21:37.529Z,7.22
2023-01-29T21:24:04.984Z,2.97
2023-01-29T21:26:31.680Z,5.80
2023-01-29T21:28:58.349Z,3.35
2023-01-29T21:31:25.015Z,5.25
2023-01-29T21:33:51.668Z,4.05
2023-01-29T21:36:18.292Z,4.68
2023-01-29T21:38:44.864Z,9.15
2023-01-29T21:41:11.874Z,4.63
2023-01-29T21:43:39.068Z,4.20
2023-01-29T21:46:16.323Z,5.43
2023-01-29T21:48:43.277Z,6.65
2023-01-29T21:51:09.928Z,3.40
2023-01-29T21:53:36.844Z,3.00
2023-01-29T21:56:05.606Z,8.70
2023-01-29T21:58:32.305Z,5.35
2023-01-29T22:01:35.126Z,5.40
2023-01-29T22:03:47.419Z,7.53
2023-01-29T22:06:14.464Z,7.07
2023-01-29T22:08:41.045Z,6.88
2023-01-29T22:11:08.835Z,5.97
2023-01-29T22:13:35.594Z,3.55
2023-01-29T22:16:02.211Z,5.47
2023-01-29T22:18:28.937Z,4.28
2023-01-29T22:20:56.677Z,5.35
2023-01-29T22:23:24.273Z,4.35
2023-01-29T22:25:50.974Z,3.65
2023-01-29T22:28:18.615Z,3.08
2023-01-29T22:30:45.632Z,9.05
2023-01-29T22:33:12.814Z,4.75
2023-01-29T22:35:39.676Z,4.05
2023-01-29T22:38:06.679Z,3.28
2023-01-29T22:40:33.246Z,6.43
2023-01-29T22:42:59.843Z,6.03
2023-01-29T22:45:27.116Z,3.60
2023-01-29T22:47:53.652Z,4.45
2023-01-29T22:50:20.587Z,3.53
2023-01-29T22:52:54.105Z,5.05
2023-01-29T22:55:21.038Z,2.80
2023-01-29T22:57:50.063Z,3.08
2023-01-29T23:00:17.748Z,3.13
2023-01-29T23:02:46.832Z,4.57
2023-01-29T23:05:13.463Z,3.25
2023-01-29T23:07:40.375Z,4.10
2023-01-29T23:10:07.764Z,7.22
2023-01-29T23:12:34.441Z,4.88
2023-01-29T23:15:01.110Z,2.95
2023-01-29T23:17:27.999Z,7.18
2023-01-29T23:19:54.581Z,4.20
2023-01-29T23:22:23.865Z,4.78
2023-01-29T23:24:50.761Z,2.58
2023-01-29T23:27:17.810Z,7.22
2023-01-29T23:29:47.024Z,5.22
2023-01-29T23:32:17.810Z,4.05
2023-01-29T23:34:44.718Z,6.13
2023-01-29T23:37:11.616Z,4.22
2023-01-29T23:39:38.366Z,5.18
2023-01-29T23:42:05.419Z,4.55
2023-01-29T23:44:32.098Z,5.60
2023-01-29T23:46:59.324Z,5.97
2023-01-29T23:49:26.153Z,4.30
2023-01-29T23:51:53.173Z,5.65
2023-01-29T23:54:20.019Z,8.02
2023-01-29T23:56:46.662Z,3.60
2023-01-29T23:59:13.444Z,7.15
